createdAt,value
2018-06-28T00:01:00.180Z,57.50
2018-06-28T00:04:24.910Z,57.60
2018-06-28T00:07:48.923Z,57.90
2018-06-28T00:14:37.136Z,57.90
2018-06-28T00:18:01.136Z,58.20
2018-06-28T00:21:25.128Z,58.40
2018-06-28T00:24:49.060Z,58.30
2018-06-28T00:28:12.958Z,58.40
2018-06-28T00:31:37.738Z,58.40
2018-06-28T00:35:02.668Z,58.60
2018-06-28T00:38:28.544Z,58.70
2018-06-28T00:41:53.308Z,59.10
2018-06-28T00:45:18.094Z,59.20
2018-06-28T00:48:43.900Z,59.30
2018-06-28T00:52:08.678Z,59.20
2018-06-28T00:58:57.916Z,59.70
2018-06-28T01:02:23.627Z,59.80
2018-06-28T01:05:48.301Z,60.10
2018-06-28T01:09:13.349Z,60.00
2018-06-28T01:12:38.141Z,60.30
2018-06-28T01:16:02.842Z,60.40
2018-06-28T01:19:27.582Z,61.10
2018-06-28T01:22:52.291Z,60.90
2018-06-28T01:26:17.020Z,60.70
2018-06-28T01:29:41.684Z,61.50
2018-06-28T01:33:06.386Z,61.20
2018-06-28T01:36:31.356Z,61.90
2018-06-28T01:43:37.037Z,61.70
2018-06-28T01:47:01.696Z,62.10
2018-06-28T01:50:26.400Z,61.50
2018-06-28T01:53:51.149Z,61.90
2018-06-28T01:57:16.008Z,62.00
2018-06-28T02:00:40.754Z,61.60
2018-06-28T02:04:05.560Z,61.70
2018-06-28T02:07:30.238Z,62.60
2018-06-28T02:10:54.956Z,61.70
2018-06-28T02:14:19.658Z,61.70
2018-06-28T02:17:45.307Z,62.20
2018-06-28T02:21:10.987Z,62.80
2018-06-28T02:24:35.817Z,63.00
2018-06-28T02:28:00.595Z,63.40
2018-06-28T02:31:25.283Z,63.40
2018-06-28T02:34:50.047Z,63.50
2018-06-28T02:38:14.881Z,63.40
2018-06-28T02:41:39.552Z,63.70
2018-06-28T02:45:04.495Z,64.40
2018-06-28T02:48:29.216Z,64.10
2018-06-28T02:51:53.900Z,64.20
2018-06-28T02:55:18.654Z,65.00
2018-06-28T02:58:43.500Z,64.30
2018-06-28T03:02:08.237Z,64.70
2018-06-28T03:05:32.912Z,64.50
2018-06-28T03:08:57.580Z,65.30
2018-06-28T03:12:22.253Z,65.00
2018-06-28T03:15:46.989Z,64.70
2018-06-28T03:19:11.673Z,65.60
2018-06-28T03:26:00.886Z,65.30
2018-06-28T03:29:25.702Z,65.20
2018-06-28T03:32:50.458Z,65.20
2018-06-28T03:36:15.221Z,65.50
2018-06-28T03:39:39.865Z,66.10
2018-06-28T03:43:04.567Z,66.30
2018-06-28T03:46:29.216Z,66.70
2018-06-28T03:49:53.926Z,66.90
2018-06-28T03:53:18.600Z,66.80
2018-06-28T03:56:43.369Z,67.50
2018-06-28T04:00:08.193Z,67.90
2018-06-28T04:03:32.938Z,68.60
2018-06-28T04:06:57.692Z,68.70
2018-06-28T04:10:22.477Z,68.30
2018-06-28T04:13:47.270Z,68.30
2018-06-28T04:17:12.074Z,68.40
2018-06-28T04:20:36.884Z,68.00
2018-06-28T04:27:43.079Z,68.20
2018-06-28T04:31:07.938Z,68.90
2018-06-28T04:34:32.693Z,68.10
2018-06-28T04:37:57.525Z,67.90
2018-06-28T04:44:46.780Z,67.10
2018-06-28T04:48:11.585Z,67.10
2018-06-28T04:51:36.430Z,68.00
2018-06-28T04:55:01.289Z,67.10
2018-06-28T04:58:26.041Z,67.10
2018-06-28T05:01:50.752Z,67.10
2018-06-28T05:05:15.617Z,67.20
2018-06-28T05:12:04.946Z,68.90
2018-06-28T05:15:30.228Z,66.90
2018-06-28T05:18:55.100Z,67.60
2018-06-28T05:22:19.954Z,66.30
2018-06-28T05:29:09.975Z,66.60
2018-06-28T05:35:59.373Z,67.00
2018-06-28T05:39:24.115Z,67.30
2018-06-28T05:42:49.064Z,67.70
2018-06-28T05:46:14.868Z,66.40
2018-06-28T05:49:39.958Z,66.30
2018-06-28T05:53:04.854Z,65.90
2018-06-28T05:56:29.709Z,66.50
2018-06-28T05:59:54.598Z,65.40
2018-06-28T06:03:19.478Z,64.80
2018-06-28T06:06:44.590Z,64.50
2018-06-28T06:10:09.657Z,63.80
2018-06-28T06:13:34.540Z,63.20
2018-06-28T06:17:00.510Z,63.20
2018-06-28T06:20:25.423Z,62.90
2018-06-28T06:23:50.108Z,62.60
2018-06-28T06:27:15.941Z,63.00
2018-06-28T06:30:40.902Z,62.20
2018-06-28T06:34:26.356Z,62.10
2018-06-28T06:37:51.181Z,61.40
2018-06-28T06:41:16.245Z,61.10
2018-06-28T06:44:41.060Z,60.90
2018-06-28T06:48:07.578Z,60.50
2018-06-28T06:51:33.504Z,60.20
2018-06-28T06:54:58.368Z,59.80
2018-06-28T06:58:23.321Z,59.20
2018-06-28T07:01:48.208Z,58.90
2018-06-28T07:08:37.317Z,58.70
2018-06-28T07:12:03.076Z,58.30
2018-06-28T07:15:27.800Z,58.50
2018-06-28T07:18:52.531Z,58.20
2018-06-28T07:25:42.228Z,58.50
2018-06-28T07:32:31.564Z,58.10
2018-06-28T07:35:57.325Z,57.90
2018-06-28T07:39:22.205Z,58.40
2018-06-28T07:42:46.899Z,58.50
2018-06-28T07:46:11.676Z,58.40
2018-06-28T07:49:37.405Z,57.50
2018-06-28T07:53:02.126Z,57.50
2018-06-28T07:56:26.871Z,58.10
2018-06-28T07:59:53.194Z,58.40
2018-06-28T08:03:18.291Z,57.50
2018-06-28T08:06:43.221Z,57.40
2018-06-28T08:10:08.171Z,57.50
2018-06-28T08:13:32.954Z,57.30
2018-06-28T08:16:59.768Z,56.80
2018-06-28T08:20:25.529Z,56.10
2018-06-28T08:23:50.481Z,56.10
2018-06-28T08:27:15.220Z,56.50
2018-06-28T08:30:40.290Z,55.20
2018-06-28T08:40:56.122Z,54.20
2018-06-28T08:44:22.013Z,54.50
2018-06-28T08:51:11.289Z,54.00
2018-06-28T08:54:36.460Z,54.20
2018-06-28T08:58:01.280Z,54.10
2018-06-28T09:01:26.283Z,53.80
2018-06-28T09:04:51.324Z,53.00
2018-06-28T09:08:16.287Z,52.80
2018-06-28T09:15:06.324Z,52.20
2018-06-28T09:22:00.089Z,53.50
2018-06-28T09:25:25.698Z,54.00
2018-06-28T09:28:50.411Z,53.80
2018-06-28T09:35:41.724Z,52.80
2018-06-28T09:39:10.185Z,52.30
2018-06-28T09:42:35.341Z,53.00
2018-06-28T09:46:00.196Z,53.00
2018-06-28T09:49:25.078Z,52.90
2018-06-28T09:52:52.751Z,53.00
2018-06-28T09:56:17.713Z,52.70
2018-06-28T09:59:42.653Z,52.10
2018-06-28T10:03:07.360Z,51.70
2018-06-28T10:06:32.111Z,52.10
2018-06-28T10:09:56.928Z,52.40
2018-06-28T10:13:21.879Z,52.60
2018-06-28T10:16:46.767Z,52.40
2018-06-28T10:20:11.974Z,52.40
2018-06-28T10:30:28.834Z,53.00
2018-06-28T10:33:54.775Z,52.70
2018-06-28T10:37:19.559Z,53.00
2018-06-28T10:40:44.471Z,51.10
2018-06-28T10:44:09.522Z,50.10
2018-06-28T10:47:34.514Z,50.90
2018-06-28T10:50:59.280Z,50.80
2018-06-28T10:54:25.342Z,49.90
2018-06-28T10:57:50.116Z,49.70
2018-06-28T11:01:14.981Z,49.70
2018-06-28T11:04:39.863Z,50.60
2018-06-28T11:08:04.769Z,51.50
2018-06-28T11:14:54.024Z,50.90
2018-06-28T11:18:18.931Z,51.40
2018-06-28T11:21:44.073Z,51.00
2018-06-28T11:25:08.810Z,50.20
2018-06-28T11:28:33.585Z,50.00
2018-06-28T11:31:58.369Z,49.70
2018-06-28T11:35:23.105Z,50.40
2018-06-28T11:38:48.252Z,51.30
2018-06-28T11:42:13.077Z,51.20
2018-06-28T11:45:37.844Z,51.80
2018-06-28T11:49:02.642Z,52.00
2018-06-28T11:52:27.457Z,51.60
2018-06-28T11:55:52.219Z,50.60
2018-06-28T11:59:17.150Z,50.10
2018-06-28T12:02:42.099Z,50.00
2018-06-28T12:06:06.875Z,49.50
2018-06-28T12:09:32.872Z,50.20
2018-06-28T12:12:58.722Z,52.10
2018-06-28T12:16:23.630Z,52.90
2018-06-28T12:19:48.457Z,53.70
2018-06-28T12:23:13.284Z,54.10
2018-06-28T12:26:38.047Z,53.30
2018-06-28T12:30:02.922Z,53.10
2018-06-28T12:33:27.686Z,53.30
2018-06-28T12:36:53.473Z,53.90
2018-06-28T12:43:42.585Z,56.40
2018-06-28T12:47:57.831Z,57.00
2018-06-28T12:51:38.472Z,56.80
2018-06-28T12:55:04.431Z,56.10
2018-06-28T12:58:29.320Z,56.90
2018-06-28T13:01:55.125Z,56.80
2018-06-28T13:05:20.092Z,57.10
2018-06-28T13:08:45.141Z,57.30
2018-06-28T13:12:10.621Z,58.30
2018-06-28T13:15:35.596Z,58.60
2018-06-28T13:20:25.739Z,59.30
2018-06-28T13:23:51.309Z,59.50
2018-06-28T13:27:16.999Z,59.30
2018-06-28T13:30:41.671Z,58.90
2018-06-28T13:34:06.425Z,58.60
2018-06-28T13:37:33.223Z,59.30
2018-06-28T13:40:58.256Z,58.50
2018-06-28T13:44:22.882Z,57.20
2018-06-28T13:47:47.725Z,55.90
2018-06-28T13:51:12.461Z,55.00
2018-06-28T13:54:37.192Z,55.10
2018-06-28T13:58:01.943Z,55.00
2018-06-28T14:01:26.726Z,53.50
2018-06-28T14:04:51.421Z,53.40
2018-06-28T14:08:16.130Z,52.80
2018-06-28T14:11:40.979Z,53.10
2018-06-28T14:15:06.542Z,53.10
2018-06-28T14:18:31.303Z,53.50
2018-06-28T14:21:56.052Z,53.40
2018-06-28T14:25:20.765Z,53.40
2018-06-28T14:28:45.479Z,53.70
2018-06-28T14:32:10.293Z,52.60
2018-06-28T14:35:35.150Z,53.00
2018-06-28T14:38:59.992Z,52.80
2018-06-28T14:42:25.027Z,52.90
2018-06-28T14:45:50.168Z,51.90
2018-06-28T14:49:15.081Z,51.50
2018-06-28T14:52:40.014Z,52.40
2018-06-28T14:56:05.108Z,52.60
2018-06-28T14:59:29.898Z,51.90
2018-06-28T15:02:54.800Z,52.00
2018-06-28T15:06:19.486Z,51.90
2018-06-28T15:09:44.298Z,50.80
2018-06-28T15:13:09.424Z,51.20
2018-06-28T15:16:34.191Z,51.70
2018-06-28T15:19:58.932Z,51.90
2018-06-28T15:23:23.794Z,52.90
2018-06-28T15:26:48.705Z,53.40
2018-06-28T15:30:13.733Z,53.20
2018-06-28T15:33:38.703Z,53.50
2018-06-28T15:37:03.454Z,52.60
2018-06-28T15:40:28.225Z,51.90
2018-06-28T15:43:53.045Z,51.40
2018-06-28T15:50:43.373Z,51.30
2018-06-28T15:54:08.197Z,49.70
2018-06-28T15:57:32.966Z,48.80
2018-06-28T16:00:57.738Z,49.10
2018-06-28T16:04:22.490Z,50.20
2018-06-28T16:07:47.227Z,50.40
2018-06-28T16:11:12.051Z,50.30
2018-06-28T16:18:03.024Z,53.30
2018-06-28T16:21:29.023Z,53.60
2018-06-28T16:24:54.834Z,53.40
2018-06-28T16:28:19.782Z,53.70
2018-06-28T16:31:44.762Z,53.70
2018-06-28T16:35:10.670Z,53.20
2018-06-28T16:38:36.689Z,53.60
2018-06-28T16:42:01.474Z,53.30
2018-06-28T16:45:26.461Z,52.50
2018-06-28T16:48:51.425Z,52.80
2018-06-28T16:52:16.351Z,52.50
2018-06-28T16:55:41.229Z,52.10
2018-06-28T17:05:54.996Z,51.50
2018-06-28T17:09:21.017Z,52.50
2018-06-28T17:12:46.051Z,52.80
2018-06-28T17:16:11.482Z,53.20
2018-06-28T17:19:41.663Z,53.60
2018-06-28T17:23:09.395Z,53.90
2018-06-28T17:26:36.511Z,53.90
2018-06-28T17:30:03.156Z,54.20
2018-06-28T17:33:28.102Z,54.20
2018-06-28T17:36:53.261Z,55.00
2018-06-28T17:40:18.296Z,55.70
2018-06-28T17:43:43.039Z,56.30
2018-06-28T17:47:08.013Z,56.50
2018-06-28T17:53:57.369Z,56.20
2018-06-28T17:57:22.216Z,55.80
2018-06-28T18:00:47.126Z,55.80
2018-06-28T18:07:36.321Z,57.00
2018-06-28T18:11:02.297Z,57.40
2018-06-28T18:17:53.148Z,56.50
2018-06-28T18:21:18.482Z,56.50
2018-06-28T18:28:07.897Z,55.80
2018-06-28T18:31:32.922Z,55.90
2018-06-28T18:38:23.549Z,56.10
2018-06-28T18:41:48.502Z,57.50
2018-06-28T18:45:13.526Z,57.40
2018-06-28T18:48:38.539Z,58.20
2018-06-28T18:52:03.260Z,58.90
2018-06-28T18:55:28.228Z,59.40
2018-06-28T18:58:54.010Z,60.00
2018-06-28T19:02:18.784Z,60.30
2018-06-28T19:05:43.799Z,61.30
2018-06-28T19:09:11.711Z,62.20
2018-06-28T19:16:07.314Z,63.20
2018-06-28T19:23:08.942Z,64.70
2018-06-28T19:26:33.724Z,66.20
2018-06-28T19:30:03.938Z,69.60
2018-06-28T19:33:29.067Z,71.70
2018-06-28T19:36:53.924Z,75.40
2018-06-28T19:40:23.981Z,84.70
2018-06-28T19:43:48.955Z,88.80
2018-06-28T19:50:43.625Z,92.00
2018-06-28T19:54:09.305Z,93.30
2018-06-28T19:57:34.288Z,93.10
2018-06-28T20:01:04.804Z,93.10
2018-06-28T20:04:35.081Z,92.80
2018-06-28T20:07:59.897Z,92.90
2018-06-28T20:11:24.562Z,91.90
2018-06-28T20:14:54.719Z,92.20
2018-06-28T20:18:24.873Z,91.50
2018-06-28T20:21:49.627Z,92.50
2018-06-28T20:25:15.581Z,92.50
2018-06-28T20:28:45.597Z,92.30
2018-06-28T20:32:15.556Z,92.30
2018-06-28T20:35:40.492Z,92.60
2018-06-28T20:39:07.833Z,92.70
2018-06-28T20:42:32.552Z,93.40
2018-06-28T20:45:57.423Z,93.30
2018-06-28T20:52:47.711Z,93.70
2018-06-28T20:59:36.782Z,94.00
2018-06-28T21:03:01.557Z,93.10
2018-06-28T21:06:26.264Z,93.70
2018-06-28T21:09:51.122Z,93.80
2018-06-28T21:13:15.835Z,93.40
2018-06-28T21:20:05.113Z,94.30
2018-06-28T21:23:29.745Z,93.70
2018-06-28T21:26:54.406Z,93.90
2018-06-28T21:30:19.466Z,94.00
2018-06-28T21:33:44.305Z,93.30
2018-06-28T21:37:09.989Z,93.50
2018-06-28T21:40:35.809Z,93.50
2018-06-28T21:44:00.484Z,93.70
2018-06-28T21:47:25.351Z,93.40
2018-06-28T21:50:50.296Z,94.00
2018-06-28T21:54:15.129Z,94.70
2018-06-28T21:57:39.995Z,93.60
2018-06-28T22:01:05.003Z,94.00
2018-06-28T22:04:29.700Z,93.40
2018-06-28T22:11:19.110Z,92.40
2018-06-28T22:14:44.091Z,92.00
2018-06-28T22:18:09.088Z,91.70
2018-06-28T22:21:35.032Z,91.90
2018-06-28T22:24:59.858Z,92.00
2018-06-28T22:28:24.576Z,92.60
2018-06-28T22:31:49.813Z,92.40
2018-06-28T22:35:15.184Z,92.40
2018-06-28T22:38:40.029Z,92.30
2018-06-28T22:42:04.786Z,92.40
2018-06-28T22:45:29.477Z,92.70
2018-06-28T22:48:54.220Z,92.80
2018-06-28T22:52:18.980Z,92.80
2018-06-28T22:55:43.680Z,92.50
2018-06-28T22:59:08.499Z,92.50
2018-06-28T23:02:33.260Z,92.50
2018-06-28T23:05:58.067Z,92.70
2018-06-28T23:09:22.838Z,92.80
2018-06-28T23:12:47.731Z,93.10
2018-06-28T23:16:12.501Z,93.30
2018-06-28T23:19:37.248Z,93.00
2018-06-28T23:23:02.006Z,93.10
2018-06-28T23:26:26.811Z,93.00
2018-06-28T23:29:51.553Z,92.90
2018-06-28T23:36:40.769Z,93.50
2018-06-28T23:40:05.925Z,93.40
2018-06-28T23:43:30.728Z,93.40
2018-06-28T23:46:55.456Z,93.60
2018-06-28T23:50:20.215Z,93.70
2018-06-28T23:53:44.964Z,93.90
2018-06-28T23:57:09.746Z,93.90
